« Back
NWS Peachtree City, Ga » Text Product » ATL Terminal Aerodrome Forecast


Printer-friendly Version
Current Version              Previous Versions:   1  2  3  4  5  6  7  8  9  

Terminal Aerodrome Forecast

457
FTUS42 KFFC 220600 AAA
TAFATL
TAF AMD
KATL 220600Z 2206/2312 09010KT 4SM -DZ BR OVC007
     FM220800 09006KT 5SM -DZ BR OVC005
     FM221000 08006KT 2SM -DZ BR OVC003
     FM221600 09008KT 5SM -DZ BR OVC007
     FM230000 09011KT 5SM -DZ BR OVC004 PROB30 2306/2310 1SM -RA BR
      OVC004=



USA.gov is the U.S. government's official web portal to all federal, state and local government web resources and services.